createdAt,value
2023-03-21T00:00:43.942Z,9.366144
2023-03-21T00:01:43.900Z,9.366015
2023-03-21T00:02:44.079Z,9.365970
2023-03-21T00:03:44.007Z,9.366106
2023-03-21T00:04:51.349Z,9.366117
2023-03-21T00:05:43.990Z,9.366164
2023-03-21T00:06:43.859Z,9.366056
2023-03-21T00:07:43.870Z,9.365939
2023-03-21T00:08:43.831Z,9.365888
2023-03-21T00:09:43.833Z,9.365901
2023-03-21T00:10:44.221Z,9.366001
2023-03-21T00:11:43.796Z,9.365972
2023-03-21T00:12:43.818Z,9.365956
2023-03-21T00:13:43.813Z,9.365950
2023-03-21T00:14:43.774Z,9.366007
2023-03-21T00:15:54.119Z,9.366101
2023-03-21T00:16:44.749Z,9.366120
2023-03-21T00:17:43.767Z,9.366112
2023-03-21T00:18:43.725Z,9.366162
2023-03-21T00:19:43.708Z,9.366165
2023-03-21T00:20:43.713Z,9.366124
2023-03-21T00:22:03.276Z,9.366061
2023-03-21T00:22:45.743Z,9.366053
2023-03-21T00:23:43.660Z,9.366035
2023-03-21T00:24:43.641Z,9.366009
2023-03-21T00:25:43.628Z,9.366055
2023-03-21T00:26:43.612Z,9.366027
2023-03-21T00:27:57.213Z,9.365948
2023-03-21T00:28:45.616Z,9.365887
2023-03-21T00:29:43.571Z,9.365878
2023-03-21T00:30:43.566Z,9.365968
2023-03-21T00:31:43.545Z,9.366076
2023-03-21T00:33:44.573Z,9.366272
2023-03-21T00:34:57.647Z,9.366143
2023-03-21T00:35:58.297Z,9.366337
2023-03-21T00:36:44.589Z,9.366117
2023-03-21T00:37:43.516Z,9.365852
2023-03-21T00:38:43.477Z,9.365965
2023-03-21T00:39:43.507Z,9.366079
2023-03-21T00:40:48.818Z,9.366001
2023-03-21T00:41:44.492Z,9.365917
2023-03-21T00:42:43.450Z,9.366040
2023-03-21T00:43:43.435Z,9.366082
2023-03-21T00:44:43.426Z,9.365995
2023-03-21T00:45:43.425Z,9.366028
2023-03-21T00:46:51.632Z,9.366185
2023-03-21T00:47:44.497Z,9.366098
2023-03-21T00:48:43.387Z,9.366041
2023-03-21T00:49:43.376Z,9.366121
2023-03-21T00:50:43.356Z,9.366056
2023-03-21T00:51:43.335Z,9.366070
2023-03-21T00:52:43.308Z,9.366049
2023-03-21T00:53:43.294Z,9.366199
2023-03-21T00:54:43.338Z,9.366122
2023-03-21T00:55:43.281Z,9.366009
2023-03-21T00:56:43.271Z,9.366022
2023-03-21T00:57:45.344Z,9.366020
2023-03-21T00:58:43.255Z,9.366006
2023-03-21T00:59:43.290Z,9.366071
2023-03-21T01:45:57.211Z,9.365710
2023-03-21T01:47:09.841Z,9.365859
2023-03-21T01:47:58.161Z,9.365859
2023-03-21T01:48:57.119Z,9.366093
2023-03-21T01:49:57.134Z,9.366001
2023-03-21T01:50:57.097Z,9.365922
2023-03-21T01:52:01.067Z,9.365906
2023-03-21T01:52:57.114Z,9.366036
2023-03-21T01:53:57.068Z,9.366165
2023-03-21T01:54:57.146Z,9.366408
2023-03-21T01:55:57.042Z,9.366463
2023-03-21T01:56:57.095Z,9.366307
2023-03-21T01:58:06.485Z,9.366307
2023-03-21T01:58:59.006Z,9.366307
2023-03-21T01:59:57.013Z,9.366307
2023-03-21T02:00:57.130Z,9.366307
2023-03-21T02:01:56.996Z,9.366307
2023-03-21T02:03:06.160Z,9.366307
2023-03-21T02:03:57.970Z,9.366307
2023-03-21T02:04:56.936Z,9.367622
2023-03-21T02:05:56.918Z,9.367349
2023-03-21T02:06:56.897Z,9.366631
2023-03-21T02:07:56.936Z,9.365702
2023-03-21T02:08:56.892Z,9.365783
2023-03-21T02:09:56.897Z,9.365958
2023-03-21T02:10:56.878Z,9.365975
2023-03-21T02:11:56.853Z,9.365998
2023-03-21T02:12:56.873Z,9.366049
2023-03-21T02:14:06.177Z,9.366096
2023-03-21T02:14:57.830Z,9.365985
2023-03-21T02:15:56.812Z,9.365972
2023-03-21T02:16:56.808Z,9.366034
2023-03-21T02:17:56.813Z,9.366214
2023-03-21T02:18:56.799Z,9.366069
2023-03-21T02:19:56.771Z,9.365973
2023-03-21T02:20:56.751Z,9.366034
2023-03-21T02:21:56.753Z,9.365986
2023-03-21T02:22:56.743Z,9.365957
2023-03-21T02:23:56.741Z,9.365974
2023-03-21T02:25:01.469Z,9.365970
2023-03-21T02:25:57.702Z,9.366050
2023-03-21T02:27:03.859Z,9.365838
2023-03-21T02:27:57.672Z,9.365676
2023-03-21T02:28:56.704Z,9.365932
2023-03-21T02:29:56.662Z,9.365898
2023-03-21T02:30:56.879Z,9.365952
2023-03-21T02:32:00.892Z,9.366029
2023-03-21T02:32:56.669Z,9.366014
2023-03-21T02:33:56.663Z,9.366022
2023-03-21T02:34:56.603Z,9.365921
2023-03-21T02:36:00.594Z,9.365969
2023-03-21T02:36:57.560Z,9.366032
2023-03-21T02:38:00.514Z,9.365996
2023-03-21T02:38:57.582Z,9.366017
2023-03-21T02:39:56.550Z,9.366060
2023-03-21T02:41:00.325Z,9.366261
2023-03-21T02:41:56.511Z,9.366095
2023-03-21T02:43:00.972Z,9.366055
2023-03-21T02:43:56.512Z,9.366050
2023-03-21T02:44:56.534Z,9.366004
2023-03-21T02:45:56.513Z,9.365887
2023-03-21T02:47:04.995Z,9.366157
2023-03-21T02:47:57.487Z,9.365972
2023-03-21T02:48:56.472Z,9.365956
2023-03-21T02:49:56.873Z,9.366101
2023-03-21T02:50:56.413Z,9.366180
2023-03-21T02:51:58.123Z,9.366392
2023-03-21T02:52:56.384Z,9.365966
2023-03-21T02:54:24.613Z,9.366027
2023-03-21T02:54:56.372Z,9.365983
2023-03-21T02:55:56.378Z,9.365993
2023-03-21T02:56:56.519Z,9.366020
2023-03-21T02:57:56.673Z,9.366014
2023-03-21T02:58:56.672Z,9.365967
2023-03-21T03:00:02.323Z,9.365849
2023-03-21T03:00:58.353Z,9.365866
2023-03-21T03:01:56.284Z,9.365982
2023-03-21T03:03:08.220Z,9.365951
2023-03-21T03:03:56.310Z,9.365948
2023-03-21T03:04:56.285Z,9.365987
2023-03-21T03:05:56.285Z,9.365974
2023-03-21T03:06:56.252Z,9.366010
2023-03-21T03:07:56.236Z,9.366016
2023-03-21T03:09:02.389Z,9.366031
2023-03-21T03:09:56.229Z,9.366018
2023-03-21T03:10:56.219Z,9.366040
2023-03-21T03:11:56.208Z,9.366038
2023-03-21T03:12:56.181Z,9.366099
2023-03-21T03:13:56.159Z,9.365936
2023-03-21T03:15:03.217Z,9.366013
2023-03-21T03:15:56.150Z,9.365970
2023-03-21T03:16:56.163Z,9.366009
2023-03-21T03:17:56.106Z,9.365973
2023-03-21T03:18:56.115Z,9.365938
2023-03-21T03:19:57.143Z,9.365961
2023-03-21T03:20:56.115Z,9.365978
2023-03-21T03:21:56.116Z,9.366017
2023-03-21T03:22:56.086Z,9.366066
2023-03-21T03:23:56.062Z,9.366068
2023-03-21T03:24:56.049Z,9.366080
2023-03-21T03:25:56.050Z,9.366119
2023-03-21T03:26:56.018Z,9.365987
2023-03-21T03:27:56.063Z,9.366018
2023-03-21T03:28:56.003Z,9.366072
2023-03-21T03:29:55.977Z,9.366001
2023-03-21T03:31:08.011Z,9.365961
2023-03-21T03:31:57.009Z,9.366039
2023-03-21T03:32:55.990Z,9.366076
2023-03-21T03:33:55.944Z,9.366025
2023-03-21T03:34:55.925Z,9.366086
2023-03-21T03:36:04.848Z,9.366018
2023-03-21T03:36:56.978Z,9.365884
2023-03-21T03:37:55.896Z,9.366023
2023-03-21T03:38:56.045Z,9.365936
2023-03-21T03:39:55.865Z,9.365975
2023-03-21T03:40:55.856Z,9.365837
2023-03-21T03:42:10.190Z,9.365975
2023-03-21T03:42:57.826Z,9.366038
2023-03-21T03:43:55.987Z,9.366009
2023-03-21T03:44:56.582Z,9.366053
2023-03-21T03:45:55.793Z,9.366097
2023-03-21T03:46:55.865Z,9.366037
2023-03-21T03:47:57.472Z,9.366017
2023-03-21T03:48:55.781Z,9.365970
2023-03-21T03:49:55.762Z,9.365966
2023-03-21T03:50:55.742Z,9.365927
2023-03-21T03:51:55.715Z,9.365903
2023-03-21T03:52:57.754Z,9.365907
2023-03-21T03:53:56.345Z,9.366128
2023-03-21T03:54:55.744Z,9.366191
2023-03-21T03:55:55.669Z,9.366153
2023-03-21T03:56:55.676Z,9.366040
2023-03-21T03:57:55.666Z,9.366208
2023-03-21T03:58:55.626Z,9.366045
2023-03-21T03:59:55.653Z,9.365905
2023-03-21T04:00:55.640Z,9.366252
2023-03-21T04:01:55.638Z,9.366194
2023-03-21T04:02:55.687Z,9.366160
2023-03-21T04:04:10.419Z,9.366382
2023-03-21T04:04:55.598Z,9.366352
2023-03-21T04:05:55.731Z,9.366244
2023-03-21T04:06:57.526Z,9.366262
2023-03-21T04:07:55.558Z,9.366407
2023-03-21T04:08:55.527Z,9.366414
2023-03-21T04:09:55.520Z,9.366189
2023-03-21T04:10:55.561Z,9.366212
2023-03-21T04:11:55.506Z,9.366145
2023-03-21T04:12:55.479Z,9.366157
2023-03-21T04:13:55.486Z,9.366348
2023-03-21T04:15:01.934Z,9.366516
2023-03-21T04:15:55.624Z,9.366378
2023-03-21T04:16:55.482Z,9.365792
2023-03-21T04:17:55.448Z,9.366170
2023-03-21T04:18:55.576Z,9.365932
2023-03-21T04:20:05.379Z,9.366274
2023-03-21T04:20:56.402Z,9.366210
2023-03-21T04:21:55.420Z,9.366210
2023-03-21T04:22:55.413Z,9.366109
2023-03-21T04:23:55.376Z,9.366220
2023-03-21T04:24:55.359Z,9.365581
2023-03-21T04:25:56.974Z,9.365653
2023-03-21T04:26:56.366Z,9.365849
2023-03-21T04:27:55.317Z,9.365943
2023-03-21T04:28:55.300Z,9.365900
2023-03-21T04:29:55.289Z,9.365981
2023-03-21T04:31:03.539Z,9.366022
2023-03-21T04:31:55.398Z,9.365933
2023-03-21T04:32:55.282Z,9.365917
2023-03-21T04:33:55.252Z,9.365874
2023-03-21T04:34:55.235Z,9.365806
2023-03-21T04:35:55.229Z,9.365913
2023-03-21T04:36:55.215Z,9.365705
2023-03-21T04:37:55.248Z,9.365872
2023-03-21T04:38:55.200Z,9.365821
2023-03-21T04:39:55.194Z,9.365998
2023-03-21T04:40:55.337Z,9.366064
2023-03-21T04:41:55.161Z,9.365870
2023-03-21T04:42:55.182Z,9.365951
2023-03-21T04:43:55.157Z,9.366092
2023-03-21T04:44:55.120Z,9.366117
2023-03-21T04:45:55.142Z,9.365978
2023-03-21T04:46:55.095Z,9.365968
2023-03-21T04:47:55.132Z,9.365878
2023-03-21T04:48:55.085Z,9.365916
2023-03-21T04:49:55.078Z,9.366073
2023-03-21T04:50:55.053Z,9.366090
2023-03-21T04:51:55.041Z,9.365926
2023-03-21T04:52:55.033Z,9.365992
2023-03-21T04:53:55.058Z,9.365984
2023-03-21T04:54:55.019Z,9.366003
2023-03-21T04:55:55.658Z,9.366006
2023-03-21T04:56:55.977Z,9.365941
2023-03-21T04:57:54.980Z,9.365996
2023-03-21T04:58:54.958Z,9.365974
2023-03-21T04:59:54.971Z,9.366024
2023-03-21T05:00:54.968Z,9.365985
2023-03-21T05:01:54.980Z,9.365882
2023-03-21T05:02:54.912Z,9.365887
2023-03-21T05:03:54.922Z,9.365906
2023-03-21T05:04:54.976Z,9.365963
2023-03-21T05:05:54.872Z,9.365983
2023-03-21T05:06:54.880Z,9.366009
2023-03-21T05:07:54.864Z,9.366061
2023-03-21T05:08:54.850Z,9.366039
2023-03-21T05:09:54.855Z,9.365970
2023-03-21T05:10:54.820Z,9.365951
2023-03-21T05:11:54.805Z,9.365999
2023-03-21T05:12:54.795Z,9.366048
2023-03-21T05:13:54.840Z,9.366013
2023-03-21T05:14:54.768Z,9.365979
2023-03-21T05:15:54.819Z,9.365953
2023-03-21T05:16:54.775Z,9.366027
2023-03-21T05:17:54.757Z,9.366037
2023-03-21T05:18:54.756Z,9.365920
2023-03-21T05:19:54.739Z,9.366017
2023-03-21T05:20:54.720Z,9.365905
2023-03-21T05:21:54.689Z,9.365892
2023-03-21T05:22:54.680Z,9.365670
2023-03-21T05:23:54.690Z,9.366253
2023-03-21T05:24:54.657Z,9.365789
2023-03-21T05:25:54.638Z,9.366130
2023-03-21T05:26:54.652Z,9.365958
2023-03-21T05:27:54.617Z,9.365983
2023-03-21T05:28:54.618Z,9.365915
2023-03-21T05:29:54.622Z,9.365918
2023-03-21T05:30:54.604Z,9.366045
2023-03-21T05:31:54.608Z,9.366042
2023-03-21T05:32:54.555Z,9.365960
2023-03-21T05:33:54.537Z,9.365990
2023-03-21T05:34:54.540Z,9.366059
2023-03-21T05:35:54.535Z,9.366289
2023-03-21T05:36:54.547Z,9.366399
2023-03-21T05:37:54.505Z,9.366257
2023-03-21T05:38:54.487Z,9.366537
2023-03-21T05:39:54.485Z,9.366263
2023-03-21T05:40:54.457Z,9.366050
2023-03-21T05:41:54.466Z,9.366085
2023-03-21T05:42:54.460Z,9.366179
2023-03-21T05:43:54.628Z,9.366222
2023-03-21T05:44:54.434Z,9.366072
2023-03-21T05:45:54.440Z,9.365905
2023-03-21T05:46:54.394Z,9.366181
2023-03-21T05:47:54.519Z,9.365814
2023-03-21T05:48:54.360Z,9.366092
2023-03-21T05:49:54.369Z,9.366249
2023-03-21T05:50:54.353Z,9.366174
2023-03-21T05:51:54.320Z,9.366075
2023-03-21T05:52:55.270Z,9.366072
2023-03-21T05:53:54.352Z,9.366138
2023-03-21T05:54:54.323Z,9.366051
2023-03-21T05:55:54.308Z,9.366179
2023-03-21T05:56:54.285Z,9.366236
2023-03-21T05:57:54.296Z,9.366225
2023-03-21T05:58:55.277Z,9.365992
2023-03-21T05:59:54.240Z,9.366014
2023-03-21T06:00:54.308Z,9.365996
2023-03-21T06:01:54.228Z,9.365957
2023-03-21T06:02:54.300Z,9.365950
2023-03-21T06:03:54.259Z,9.366007
2023-03-21T06:04:54.177Z,9.365982
2023-03-21T06:05:54.191Z,9.366039
2023-03-21T06:06:54.210Z,9.366039
2023-03-21T06:07:54.178Z,9.366079
2023-03-21T06:08:54.187Z,9.366038
2023-03-21T06:09:54.172Z,9.366023
2023-03-21T06:10:54.142Z,9.365961
2023-03-21T06:11:54.110Z,9.365942
2023-03-21T06:12:54.128Z,9.365929
2023-03-21T06:13:54.097Z,9.365993
2023-03-21T06:14:54.077Z,9.365980
2023-03-21T06:15:54.163Z,9.365989
2023-03-21T06:16:54.052Z,9.366047
2023-03-21T06:17:54.046Z,9.366052
2023-03-21T06:18:54.052Z,9.365990
2023-03-21T06:19:54.019Z,9.365984
2023-03-21T06:20:53.992Z,9.366030
2023-03-21T06:21:53.998Z,9.366035
2023-03-21T06:22:53.979Z,9.366034
2023-03-21T06:23:54.001Z,9.365993
2023-03-21T06:24:53.972Z,9.366036
2023-03-21T06:25:53.953Z,9.366109
2023-03-21T06:26:53.926Z,9.366109
2023-03-21T06:27:53.941Z,9.366097
2023-03-21T06:28:53.911Z,9.366055
2023-03-21T06:29:53.932Z,9.365959
2023-03-21T06:30:53.918Z,9.366009
2023-03-21T06:31:53.870Z,9.365984
2023-03-21T06:32:53.858Z,9.366036
2023-03-21T06:33:53.864Z,9.366011
2023-03-21T06:34:53.882Z,9.366007
2023-03-21T06:35:53.871Z,9.365960
2023-03-21T06:36:53.829Z,9.365994
2023-03-21T06:37:53.807Z,9.366014
2023-03-21T06:38:54.333Z,9.366077
2023-03-21T06:39:55.457Z,9.366020
2023-03-21T06:40:53.781Z,9.366043
2023-03-21T06:41:53.784Z,9.365942
2023-03-21T06:42:53.768Z,9.365905
2023-03-21T06:43:53.728Z,9.365896
2023-03-21T06:44:53.746Z,9.365931
2023-03-21T06:45:53.750Z,9.365936
2023-03-21T06:46:53.781Z,9.365948
2023-03-21T06:47:54.173Z,9.365974
2023-03-21T06:48:53.677Z,9.365932
2023-03-21T06:49:53.687Z,9.365943
2023-03-21T06:50:53.692Z,9.366002
2023-03-21T06:51:53.660Z,9.365947
2023-03-21T06:52:53.633Z,9.365924
2023-03-21T06:53:53.620Z,9.365860
2023-03-21T06:54:53.610Z,9.365901
2023-03-21T06:55:53.588Z,9.365907
2023-03-21T06:56:53.619Z,9.365878
2023-03-21T06:57:53.590Z,9.365788
2023-03-21T06:58:53.575Z,9.366047
2023-03-21T06:59:53.556Z,9.366044
2023-03-21T07:00:53.588Z,9.366154
2023-03-21T07:01:53.580Z,9.365997
2023-03-21T07:02:53.592Z,9.365875
2023-03-21T07:03:53.508Z,9.365935
2023-03-21T07:04:53.498Z,9.366062
2023-03-21T07:05:53.493Z,9.366008
2023-03-21T07:06:53.483Z,9.366034
2023-03-21T07:07:53.472Z,9.365932
2023-03-21T07:08:53.465Z,9.366199
2023-03-21T07:09:53.448Z,9.366082
2023-03-21T07:10:53.449Z,9.366196
2023-03-21T07:11:53.457Z,9.366031
2023-03-21T07:12:53.452Z,9.365962
2023-03-21T07:13:53.415Z,9.365911
2023-03-21T07:14:53.381Z,9.365934
2023-03-21T07:15:53.381Z,9.366053
2023-03-21T07:16:53.373Z,9.366368
2023-03-21T07:17:53.374Z,9.366178
2023-03-21T07:18:53.351Z,9.365986
2023-03-21T07:19:53.343Z,9.365969
2023-03-21T07:20:53.315Z,9.366006
2023-03-21T07:21:53.310Z,9.365999
2023-03-21T07:22:53.300Z,9.366003
2023-03-21T07:23:53.300Z,9.366042
2023-03-21T07:25:04.030Z,9.366109
2023-03-21T07:25:53.289Z,9.366008
2023-03-21T07:26:53.255Z,9.365941
2023-03-21T07:27:53.240Z,9.365928
2023-03-21T07:28:53.261Z,9.365992
2023-03-21T07:29:53.202Z,9.366055
2023-03-21T07:30:53.215Z,9.366028
2023-03-21T07:31:53.307Z,9.365883
2023-03-21T07:32:53.181Z,9.365902
2023-03-21T07:33:53.177Z,9.365984
2023-03-21T07:34:53.165Z,9.366342
2023-03-21T07:35:53.191Z,9.366160
2023-03-21T07:36:53.160Z,9.366183
2023-03-21T07:37:53.130Z,9.366017
